sensor_id;sensor_type;location;lat;lon;timestamp;temperature;humidity
66144;SHT31;52947;50.842;6.084;2022-07-04T00:00:16;13.87;73.08
66144;SHT31;52947;50.842;6.084;2022-07-04T00:02:45;13.77;73.43
66144;SHT31;52947;50.842;6.084;2022-07-04T00:05:14;13.78;73.77
66144;SHT31;52947;50.842;6.084;2022-07-04T00:07:44;13.90;73.45
66144;SHT31;52947;50.842;6.084;2022-07-04T00:10:19;13.77;73.48
66144;SHT31;52947;50.842;6.084;2022-07-04T00:12:49;13.54;73.52
66144;SHT31;52947;50.842;6.084;2022-07-04T00:15:17;13.46;74.64
66144;SHT31;52947;50.842;6.084;2022-07-04T00:17:45;13.38;74.47
66144;SHT31;52947;50.842;6.084;2022-07-04T00:20:13;13.27;74.88
66144;SHT31;52947;50.842;6.084;2022-07-04T00:22:41;13.35;75.21
66144;SHT31;52947;50.842;6.084;2022-07-04T00:25:09;13.39;75.31
66144;SHT31;52947;50.842;6.084;2022-07-04T00:27:37;13.29;75.16
66144;SHT31;52947;50.842;6.084;2022-07-04T00:30:07;13.19;75.19
66144;SHT31;52947;50.842;6.084;2022-07-04T00:32:35;13.05;75.46
66144;SHT31;52947;50.842;6.084;2022-07-04T00:35:04;12.99;75.75
66144;SHT31;52947;50.842;6.084;2022-07-04T00:37:32;12.94;76.37
66144;SHT31;52947;50.842;6.084;2022-07-04T00:40:00;12.82;76.40
66144;SHT31;52947;50.842;6.084;2022-07-04T00:42:27;12.72;76.55
66144;SHT31;52947;50.842;6.084;2022-07-04T00:44:55;12.64;76.85
66144;SHT31;52947;50.842;6.084;2022-07-04T00:47:24;12.57;76.98
66144;SHT31;52947;50.842;6.084;2022-07-04T00:49:52;12.53;77.42
66144;SHT31;52947;50.842;6.084;2022-07-04T00:52:20;12.50;77.86
66144;SHT31;52947;50.842;6.084;2022-07-04T00:54:48;12.48;78.39
66144;SHT31;52947;50.842;6.084;2022-07-04T00:57:16;12.51;78.18
66144;SHT31;52947;50.842;6.084;2022-07-04T00:59:44;12.55;78.50
66144;SHT31;52947;50.842;6.084;2022-07-04T01:02:12;12.57;78.73
66144;SHT31;52947;50.842;6.084;2022-07-04T01:04:41;12.55;78.80
66144;SHT31;52947;50.842;6.084;2022-07-04T01:07:11;12.67;78.87
66144;SHT31;52947;50.842;6.084;2022-07-04T01:09:39;12.68;78.31
66144;SHT31;52947;50.842;6.084;2022-07-04T01:12:07;12.57;78.07
66144;SHT31;52947;50.842;6.084;2022-07-04T01:14:37;12.58;78.50
66144;SHT31;52947;50.842;6.084;2022-07-04T01:17:05;12.65;78.79
66144;SHT31;52947;50.842;6.084;2022-07-04T01:19:33;12.50;78.22
66144;SHT31;52947;50.842;6.084;2022-07-04T01:22:06;12.60;79.10
66144;SHT31;52947;50.842;6.084;2022-07-04T01:24:34;12.54;79.04
66144;SHT31;52947;50.842;6.084;2022-07-04T01:27:02;12.53;78.93
66144;SHT31;52947;50.842;6.084;2022-07-04T01:29:31;12.40;78.58
66144;SHT31;52947;50.842;6.084;2022-07-04T01:32:04;12.48;79.83
66144;SHT31;52947;50.842;6.084;2022-07-04T01:34:32;12.44;79.39
66144;SHT31;52947;50.842;6.084;2022-07-04T01:37:03;12.54;79.40
66144;SHT31;52947;50.842;6.084;2022-07-04T01:39:33;12.67;79.15
66144;SHT31;52947;50.842;6.084;2022-07-04T01:42:00;12.85;78.56
66144;SHT31;52947;50.842;6.084;2022-07-04T01:44:28;12.68;78.27
66144;SHT31;52947;50.842;6.084;2022-07-04T01:46:56;12.55;79.22
66144;SHT31;52947;50.842;6.084;2022-07-04T01:49:24;12.38;79.40
66144;SHT31;52947;50.842;6.084;2022-07-04T01:51:52;12.27;79.67
66144;SHT31;52947;50.842;6.084;2022-07-04T01:54:20;12.45;79.73
66144;SHT31;52947;50.842;6.084;2022-07-04T01:56:49;12.58;79.19
66144;SHT31;52947;50.842;6.084;2022-07-04T01:59:17;12.47;79.18
66144;SHT31;52947;50.842;6.084;2022-07-04T02:01:45;12.41;79.04
66144;SHT31;52947;50.842;6.084;2022-07-04T02:04:12;12.22;79.23
66144;SHT31;52947;50.842;6.084;2022-07-04T02:06:40;12.10;79.44
66144;SHT31;52947;50.842;6.084;2022-07-04T02:09:08;12.20;80.89
66144;SHT31;52947;50.842;6.084;2022-07-04T02:11:46;12.19;80.15
66144;SHT31;52947;50.842;6.084;2022-07-04T02:14:33;12.13;80.34
66144;SHT31;52947;50.842;6.084;2022-07-04T02:17:01;12.12;80.42
66144;SHT31;52947;50.842;6.084;2022-07-04T02:19:29;12.14;81.41
66144;SHT31;52947;50.842;6.084;2022-07-04T02:21:57;12.96;88.70
66144;SHT31;52947;50.842;6.084;2022-07-04T02:24:25;13.78;86.93
66144;SHT31;52947;50.842;6.084;2022-07-04T02:26:53;14.55;82.52
66144;SHT31;52947;50.842;6.084;2022-07-04T02:29:21;14.97;81.28
66144;SHT31;52947;50.842;6.084;2022-07-04T02:31:50;15.23;79.46
66144;SHT31;52947;50.842;6.084;2022-07-04T02:34:17;15.55;77.44
66144;SHT31;52947;50.842;6.084;2022-07-04T02:36:45;15.64;76.28
66144;SHT31;52947;50.842;6.084;2022-07-04T02:39:13;15.84;74.57
66144;SHT31;52947;50.842;6.084;2022-07-04T02:41:41;15.64;73.55
66144;SHT31;52947;50.842;6.084;2022-07-04T02:44:09;15.41;72.80
66144;SHT31;52947;50.842;6.084;2022-07-04T02:46:37;15.47;73.73
66144;SHT31;52947;50.842;6.084;2022-07-04T02:49:07;15.54;74.82
66144;SHT31;52947;50.842;6.084;2022-07-04T02:51:35;15.75;73.10
66144;SHT31;52947;50.842;6.084;2022-07-04T02:54:03;15.78;73.28
66144;SHT31;52947;50.842;6.084;2022-07-04T02:56:31;15.72;72.39
66144;SHT31;52947;50.842;6.084;2022-07-04T02:58:59;15.54;72.72
66144;SHT31;52947;50.842;6.084;2022-07-04T03:01:27;15.64;72.87
66144;SHT31;52947;50.842;6.084;2022-07-04T03:03:55;15.58;72.80
66144;SHT31;52947;50.842;6.084;2022-07-04T03:06:24;15.58;72.92
66144;SHT31;52947;50.842;6.084;2022-07-04T03:08:52;15.59;71.84
66144;SHT31;52947;50.842;6.084;2022-07-04T03:11:20;15.71;72.67
66144;SHT31;52947;50.842;6.084;2022-07-04T03:13:48;15.98;71.80
66144;SHT31;52947;50.842;6.084;2022-07-04T03:16:16;15.87;71.84
66144;SHT31;52947;50.842;6.084;2022-07-04T03:18:43;16.12;71.24
66144;SHT31;52947;50.842;6.084;2022-07-04T03:21:11;16.26;69.84
66144;SHT31;52947;50.842;6.084;2022-07-04T03:23:41;16.19;70.31
66144;SHT31;52947;50.842;6.084;2022-07-04T03:26:08;16.18;69.90
66144;SHT31;52947;50.842;6.084;2022-07-04T03:28:37;16.06;70.36
66144;SHT31;52947;50.842;6.084;2022-07-04T03:31:04;15.99;70.20
66144;SHT31;52947;50.842;6.084;2022-07-04T03:33:32;15.94;71.48
66144;SHT31;52947;50.842;6.084;2022-07-04T03:36:00;16.12;70.68
66144;SHT31;52947;50.842;6.084;2022-07-04T03:38:28;16.15;70.03
66144;SHT31;52947;50.842;6.084;2022-07-04T03:40:57;16.26;69.32
66144;SHT31;52947;50.842;6.084;2022-07-04T03:43:25;16.25;70.11
66144;SHT31;52947;50.842;6.084;2022-07-04T03:45:53;15.77;69.85
66144;SHT31;52947;50.842;6.084;2022-07-04T03:48:21;15.55;70.19
66144;SHT31;52947;50.842;6.084;2022-07-04T03:50:49;15.51;71.11
66144;SHT31;52947;50.842;6.084;2022-07-04T03:53:17;15.59;71.93
66144;SHT31;52947;50.842;6.084;2022-07-04T03:55:46;15.40;70.99
66144;SHT31;52947;50.842;6.084;2022-07-04T03:58:16;15.48;71.56
66144;SHT31;52947;50.842;6.084;2022-07-04T04:00:44;15.33;71.51
66144;SHT31;52947;50.842;6.084;2022-07-04T04:03:12;15.51;71.95
66144;SHT31;52947;50.842;6.084;2022-07-04T04:05:54;15.51;71.69
66144;SHT31;52947;50.842;6.084;2022-07-04T04:08:22;15.47;71.38
66144;SHT31;52947;50.842;6.084;2022-07-04T04:10:50;15.71;71.39
66144;SHT31;52947;50.842;6.084;2022-07-04T04:13:19;15.62;70.73
66144;SHT31;52947;50.842;6.084;2022-07-04T04:15:47;15.67;70.59
66144;SHT31;52947;50.842;6.084;2022-07-04T04:18:15;15.58;71.56
66144;SHT31;52947;50.842;6.084;2022-07-04T04:20:43;15.43;71.20
66144;SHT31;52947;50.842;6.084;2022-07-04T04:23:11;15.46;71.97
66144;SHT31;52947;50.842;6.084;2022-07-04T04:25:38;15.54;71.06
66144;SHT31;52947;50.842;6.084;2022-07-04T04:28:06;15.24;71.02
66144;SHT31;52947;50.842;6.084;2022-07-04T04:30:36;15.19;72.53
66144;SHT31;52947;50.842;6.084;2022-07-04T04:33:04;15.36;71.14
66144;SHT31;52947;50.842;6.084;2022-07-04T04:35:32;15.61;70.52
66144;SHT31;52947;50.842;6.084;2022-07-04T04:38:00;15.82;70.48
66144;SHT31;52947;50.842;6.084;2022-07-04T04:40:28;16.49;69.03
66144;SHT31;52947;50.842;6.084;2022-07-04T04:42:56;17.10;66.91
66144;SHT31;52947;50.842;6.084;2022-07-04T04:45:24;17.55;65.92
66144;SHT31;52947;50.842;6.084;2022-07-04T04:47:53;17.94;64.34
66144;SHT31;52947;50.842;6.084;2022-07-04T04:50:21;18.34;63.36
66144;SHT31;52947;50.842;6.084;2022-07-04T04:52:50;18.30;62.98
66144;SHT31;52947;50.842;6.084;2022-07-04T04:55:18;18.11;62.57
66144;SHT31;52947;50.842;6.084;2022-07-04T04:57:45;18.21;63.31
66144;SHT31;52947;50.842;6.084;2022-07-04T05:00:14;18.34;63.34
66144;SHT31;52947;50.842;6.084;2022-07-04T05:02:41;19.05;62.57
66144;SHT31;52947;50.842;6.084;2022-07-04T05:05:11;19.70;59.61
66144;SHT31;52947;50.842;6.084;2022-07-04T05:07:39;20.36;58.68
66144;SHT31;52947;50.842;6.084;2022-07-04T05:10:08;21.14;56.84
66144;SHT31;52947;50.842;6.084;2022-07-04T05:12:36;21.67;55.57
66144;SHT31;52947;50.842;6.084;2022-07-04T05:15:06;21.98;54.30
66144;SHT31;52947;50.842;6.084;2022-07-04T05:17:34;22.74;52.66
66144;SHT31;52947;50.842;6.084;2022-07-04T05:20:02;23.27;50.90
66144;SHT31;52947;50.842;6.084;2022-07-04T05:22:31;23.24;50.35
66144;SHT31;52947;50.842;6.084;2022-07-04T05:25:00;23.41;50.70
66144;SHT31;52947;50.842;6.084;2022-07-04T05:27:28;23.73;49.77
66144;SHT31;52947;50.842;6.084;2022-07-04T05:29:58;23.78;49.11
66144;SHT31;52947;50.842;6.084;2022-07-04T05:32:26;24.46;48.77
66144;SHT31;52947;50.842;6.084;2022-07-04T05:34:54;25.02;47.23
66144;SHT31;52947;50.842;6.084;2022-07-04T05:37:22;25.36;47.20
66144;SHT31;52947;50.842;6.084;2022-07-04T05:39:52;25.98;45.96
66144;SHT31;52947;50.842;6.084;2022-07-04T05:42:20;26.35;43.52
66144;SHT31;52947;50.842;6.084;2022-07-04T05:44:47;26.52;43.23
66144;SHT31;52947;50.842;6.084;2022-07-04T05:47:15;27.03;42.47
66144;SHT31;52947;50.842;6.084;2022-07-04T05:49:45;27.13;42.28
66144;SHT31;52947;50.842;6.084;2022-07-04T05:52:13;26.88;42.33
66144;SHT31;52947;50.842;6.084;2022-07-04T05:54:41;27.68;41.54
66144;SHT31;52947;50.842;6.084;2022-07-04T05:57:10;27.31;41.92
66144;SHT31;52947;50.842;6.084;2022-07-04T05:59:38;28.09;41.11
66144;SHT31;52947;50.842;6.084;2022-07-04T06:02:07;28.43;39.43
66144;SHT31;52947;50.842;6.084;2022-07-04T06:04:35;28.86;39.73
66144;SHT31;52947;50.842;6.084;2022-07-04T06:07:03;29.17;37.33
66144;SHT31;52947;50.842;6.084;2022-07-04T06:09:31;29.75;37.85
66144;SHT31;52947;50.842;6.084;2022-07-04T06:11:59;29.90;36.99
66144;SHT31;52947;50.842;6.084;2022-07-04T06:14:28;29.15;37.18
66144;SHT31;52947;50.842;6.084;2022-07-04T06:16:56;29.50;37.69
66144;SHT31;52947;50.842;6.084;2022-07-04T06:19:25;29.95;37.03
66144;SHT31;52947;50.842;6.084;2022-07-04T06:21:53;29.28;37.31
66144;SHT31;52947;50.842;6.084;2022-07-04T06:24:21;30.10;36.94
66144;SHT31;52947;50.842;6.084;2022-07-04T06:26:49;30.88;36.12
66144;SHT31;52947;50.842;6.084;2022-07-04T06:29:17;31.47;34.59
66144;SHT31;52947;50.842;6.084;2022-07-04T06:31:46;31.76;33.51
66144;SHT31;52947;50.842;6.084;2022-07-04T06:34:14;31.34;33.40
66144;SHT31;52947;50.842;6.084;2022-07-04T06:37:00;30.59;34.26
66144;SHT31;52947;50.842;6.084;2022-07-04T06:39:28;30.08;35.42
66144;SHT31;52947;50.842;6.084;2022-07-04T06:41:56;29.99;35.67
66144;SHT31;52947;50.842;6.084;2022-07-04T06:44:24;30.65;34.96
66144;SHT31;52947;50.842;6.084;2022-07-04T06:46:53;30.53;35.21
66144;SHT31;52947;50.842;6.084;2022-07-04T06:49:21;30.56;35.33
66144;SHT31;52947;50.842;6.084;2022-07-04T06:51:48;30.70;34.91
66144;SHT31;52947;50.842;6.084;2022-07-04T06:54:16;30.91;34.66
66144;SHT31;52947;50.842;6.084;2022-07-04T06:56:44;30.88;34.31
66144;SHT31;52947;50.842;6.084;2022-07-04T06:59:12;31.76;33.48
66144;SHT31;52947;50.842;6.084;2022-07-04T07:01:40;32.02;33.10
66144;SHT31;52947;50.842;6.084;2022-07-04T07:04:09;32.28;32.98
66144;SHT31;52947;50.842;6.084;2022-07-04T07:06:37;33.06;31.98
66144;SHT31;52947;50.842;6.084;2022-07-04T07:09:05;33.37;30.78
66144;SHT31;52947;50.842;6.084;2022-07-04T07:11:33;34.11;30.38
66144;SHT31;52947;50.842;6.084;2022-07-04T07:14:01;33.76;30.56
66144;SHT31;52947;50.842;6.084;2022-07-04T07:16:29;34.05;30.69
66144;SHT31;52947;50.842;6.084;2022-07-04T07:18:57;33.73;30.88
66144;SHT31;52947;50.842;6.084;2022-07-04T07:21:26;34.55;30.19
66144;SHT31;52947;50.842;6.084;2022-07-04T07:23:54;35.10;29.35
66144;SHT31;52947;50.842;6.084;2022-07-04T07:26:22;34.45;29.86
66144;SHT31;52947;50.842;6.084;2022-07-04T07:28:50;34.54;30.05
66144;SHT31;52947;50.842;6.084;2022-07-04T07:31:18;34.88;28.98
66144;SHT31;52947;50.842;6.084;2022-07-04T07:33:46;34.64;29.11
66144;SHT31;52947;50.842;6.084;2022-07-04T07:36:14;34.20;30.66
66144;SHT31;52947;50.842;6.084;2022-07-04T07:38:43;34.64;29.66
66144;SHT31;52947;50.842;6.084;2022-07-04T07:41:11;34.21;30.06
66144;SHT31;52947;50.842;6.084;2022-07-04T07:43:39;34.55;29.24
66144;SHT31;52947;50.842;6.084;2022-07-04T07:46:08;35.73;27.75
66144;SHT31;52947;50.842;6.084;2022-07-04T07:48:36;35.13;28.80
66144;SHT31;52947;50.842;6.084;2022-07-04T07:51:04;35.03;29.01
66144;SHT31;52947;50.842;6.084;2022-07-04T07:53:31;35.09;28.51
66144;SHT31;52947;50.842;6.084;2022-07-04T07:56:01;33.39;30.08
66144;SHT31;52947;50.842;6.084;2022-07-04T07:58:29;33.62;30.67
66144;SHT31;52947;50.842;6.084;2022-07-04T08:00:56;33.36;29.87
66144;SHT31;52947;50.842;6.084;2022-07-04T08:03:24;32.88;31.09
66144;SHT31;52947;50.842;6.084;2022-07-04T08:06:10;33.69;30.82
66144;SHT31;52947;50.842;6.084;2022-07-04T08:08:39;33.56;30.82
66144;SHT31;52947;50.842;6.084;2022-07-04T08:11:08;33.63;30.92
66144;SHT31;52947;50.842;6.084;2022-07-04T08:13:36;33.72;31.65
66144;SHT31;52947;50.842;6.084;2022-07-04T08:16:05;32.40;32.27
66144;SHT31;52947;50.842;6.084;2022-07-04T08:18:34;32.81;31.61
66144;SHT31;52947;50.842;6.084;2022-07-04T08:21:02;32.40;32.21
66144;SHT31;52947;50.842;6.084;2022-07-04T08:23:38;32.09;32.52
66144;SHT31;52947;50.842;6.084;2022-07-04T08:26:18;32.98;32.11
66144;SHT31;52947;50.842;6.084;2022-07-04T08:28:46;33.33;31.59
66144;SHT31;52947;50.842;6.084;2022-07-04T08:31:14;33.21;31.52
66144;SHT31;52947;50.842;6.084;2022-07-04T08:34:02;32.60;31.58
66144;SHT31;52947;50.842;6.084;2022-07-04T08:36:30;31.96;32.56
66144;SHT31;52947;50.842;6.084;2022-07-04T08:38:58;32.48;31.39
66144;SHT31;52947;50.842;6.084;2022-07-04T08:41:28;32.78;30.73
66144;SHT31;52947;50.842;6.084;2022-07-04T08:44:02;33.57;30.43
66144;SHT31;52947;50.842;6.084;2022-07-04T08:46:30;32.78;30.28
66144;SHT31;52947;50.842;6.084;2022-07-04T08:49:01;32.61;29.42
66144;SHT31;52947;50.842;6.084;2022-07-04T08:51:39;32.55;30.44
66144;SHT31;52947;50.842;6.084;2022-07-04T08:54:12;31.89;31.82
66144;SHT31;52947;50.842;6.084;2022-07-04T08:56:55;32.50;31.39
66144;SHT31;52947;50.842;6.084;2022-07-04T08:59:37;33.66;29.74
66144;SHT31;52947;50.842;6.084;2022-07-04T09:02:06;34.58;27.69
66144;SHT31;52947;50.842;6.084;2022-07-04T09:04:34;34.81;28.32
66144;SHT31;52947;50.842;6.084;2022-07-04T09:07:03;34.20;28.73
66144;SHT31;52947;50.842;6.084;2022-07-04T09:09:33;33.56;29.52
66144;SHT31;52947;50.842;6.084;2022-07-04T09:12:03;32.58;30.61
66144;SHT31;52947;50.842;6.084;2022-07-04T09:14:31;31.83;30.64
66144;SHT31;52947;50.842;6.084;2022-07-04T09:17:00;31.58;31.40
66144;SHT31;52947;50.842;6.084;2022-07-04T09:19:28;31.79;29.48
66144;SHT31;52947;50.842;6.084;2022-07-04T09:21:56;32.78;29.04
66144;SHT31;52947;50.842;6.084;2022-07-04T09:24:45;32.75;30.79
66144;SHT31;52947;50.842;6.084;2022-07-04T09:27:28;32.82;29.92
66144;SHT31;52947;50.842;6.084;2022-07-04T09:29:57;33.12;29.74
66144;SHT31;52947;50.842;6.084;2022-07-04T09:32:34;33.18;31.08
66144;SHT31;52947;50.842;6.084;2022-07-04T09:35:02;32.27;31.41
66144;SHT31;52947;50.842;6.084;2022-07-04T09:37:34;30.90;32.74
66144;SHT31;52947;50.842;6.084;2022-07-04T09:40:05;30.34;32.82
66144;SHT31;52947;50.842;6.084;2022-07-04T09:42:39;30.73;32.31
66144;SHT31;52947;50.842;6.084;2022-07-04T09:45:09;30.78;32.54
66144;SHT31;52947;50.842;6.084;2022-07-04T09:47:39;30.57;32.66
66144;SHT31;52947;50.842;6.084;2022-07-04T09:50:09;30.60;33.65
66144;SHT31;52947;50.842;6.084;2022-07-04T09:52:44;30.14;33.07
66144;SHT31;52947;50.842;6.084;2022-07-04T09:55:20;30.36;33.51
66144;SHT31;52947;50.842;6.084;2022-07-04T09:57:50;30.41;33.85
66144;SHT31;52947;50.842;6.084;2022-07-04T10:00:20;30.14;34.36
66144;SHT31;52947;50.842;6.084;2022-07-04T10:02:48;29.89;34.29
66144;SHT31;52947;50.842;6.084;2022-07-04T10:05:25;29.65;33.69
66144;SHT31;52947;50.842;6.084;2022-07-04T10:07:54;30.05;34.36
66144;SHT31;52947;50.842;6.084;2022-07-04T10:10:32;29.81;33.58
66144;SHT31;52947;50.842;6.084;2022-07-04T10:13:03;29.69;33.51
66144;SHT31;52947;50.842;6.084;2022-07-04T10:15:33;29.66;34.02
66144;SHT31;52947;50.842;6.084;2022-07-04T10:18:01;29.88;33.54
66144;SHT31;52947;50.842;6.084;2022-07-04T10:20:29;29.72;34.22
66144;SHT31;52947;50.842;6.084;2022-07-04T10:22:58;29.86;34.28
66144;SHT31;52947;50.842;6.084;2022-07-04T10:25:26;30.10;34.01
66144;SHT31;52947;50.842;6.084;2022-07-04T10:27:54;29.59;34.64
66144;SHT31;52947;50.842;6.084;2022-07-04T10:30:26;30.10;33.31
66144;SHT31;52947;50.842;6.084;2022-07-04T10:32:56;30.22;33.05
66144;SHT31;52947;50.842;6.084;2022-07-04T10:35:47;29.83;33.64
66144;SHT31;52947;50.842;6.084;2022-07-04T10:38:17;29.50;34.46
66144;SHT31;52947;50.842;6.084;2022-07-04T10:40:47;30.64;32.78
66144;SHT31;52947;50.842;6.084;2022-07-04T10:46:25;30.90;31.78
66144;SHT31;52947;50.842;6.084;2022-07-04T10:48:55;30.64;32.47
66144;SHT31;52947;50.842;6.084;2022-07-04T10:51:38;30.87;32.14
66144;SHT31;52947;50.842;6.084;2022-07-04T10:54:11;30.29;33.43
66144;SHT31;52947;50.842;6.084;2022-07-04T10:56:57;29.54;34.55
66144;SHT31;52947;50.842;6.084;2022-07-04T10:59:27;29.66;33.75
66144;SHT31;52947;50.842;6.084;2022-07-04T11:02:22;29.82;33.42
66144;SHT31;52947;50.842;6.084;2022-07-04T11:04:55;30.75;32.79
66144;SHT31;52947;50.842;6.084;2022-07-04T11:08:00;30.05;33.50
66144;SHT31;52947;50.842;6.084;2022-07-04T11:10:30;30.98;32.47
66144;SHT31;52947;50.842;6.084;2022-07-04T11:13:07;30.77;32.70
66144;SHT31;52947;50.842;6.084;2022-07-04T11:16:01;30.92;32.47
66144;SHT31;52947;50.842;6.084;2022-07-04T11:18:38;30.23;33.95
66144;SHT31;52947;50.842;6.084;2022-07-04T11:21:18;29.24;34.91
66144;SHT31;52947;50.842;6.084;2022-07-04T11:23:50;29.35;34.12
66144;SHT31;52947;50.842;6.084;2022-07-04T11:26:19;29.41;34.18
66144;SHT31;52947;50.842;6.084;2022-07-04T11:28:48;29.83;34.09
66144;SHT31;52947;50.842;6.084;2022-07-04T11:31:17;30.48;33.27
66144;SHT31;52947;50.842;6.084;2022-07-04T11:33:47;30.63;31.81
66144;SHT31;52947;50.842;6.084;2022-07-04T11:36:17;31.01;31.45
66144;SHT31;52947;50.842;6.084;2022-07-04T11:38:50;30.63;33.12
66144;SHT31;52947;50.842;6.084;2022-07-04T11:41:22;29.76;32.73
66144;SHT31;52947;50.842;6.084;2022-07-04T11:44:09;30.17;32.61
66144;SHT31;52947;50.842;6.084;2022-07-04T11:47:06;30.61;32.54
66144;SHT31;52947;50.842;6.084;2022-07-04T11:49:41;31.07;32.55
66144;SHT31;52947;50.842;6.084;2022-07-04T11:52:09;31.07;32.61
66144;SHT31;52947;50.842;6.084;2022-07-04T11:54:39;31.24;32.98
66144;SHT31;52947;50.842;6.084;2022-07-04T11:57:21;31.43;32.41
66144;SHT31;52947;50.842;6.084;2022-07-04T11:59:58;30.83;32.36
66144;SHT31;52947;50.842;6.084;2022-07-04T12:02:27;29.83;33.22
66144;SHT31;52947;50.842;6.084;2022-07-04T12:04:57;28.62;34.46
66144;SHT31;52947;50.842;6.084;2022-07-04T12:07:27;29.28;33.63
66144;SHT31;52947;50.842;6.084;2022-07-04T12:09:56;29.75;32.50
66144;SHT31;52947;50.842;6.084;2022-07-04T12:12:24;30.54;32.52
66144;SHT31;52947;50.842;6.084;2022-07-04T12:15:03;30.44;31.88
66144;SHT31;52947;50.842;6.084;2022-07-04T12:17:34;30.87;30.79
66144;SHT31;52947;50.842;6.084;2022-07-04T12:20:12;30.96;30.64
66144;SHT31;52947;50.842;6.084;2022-07-04T12:22:42;28.96;33.58
66144;SHT31;52947;50.842;6.084;2022-07-04T12:25:21;27.72;35.70
66144;SHT31;52947;50.842;6.084;2022-07-04T12:27:57;27.84;35.91
66144;SHT31;52947;50.842;6.084;2022-07-04T12:30:26;29.25;35.01
66144;SHT31;52947;50.842;6.084;2022-07-04T12:32:58;30.16;32.93
66144;SHT31;52947;50.842;6.084;2022-07-04T12:35:36;30.03;33.61
66144;SHT31;52947;50.842;6.084;2022-07-04T12:38:06;29.39;33.49
66144;SHT31;52947;50.842;6.084;2022-07-04T12:40:34;29.57;34.12
66144;SHT31;52947;50.842;6.084;2022-07-04T12:43:09;30.06;33.37
66144;SHT31;52947;50.842;6.084;2022-07-04T12:45:44;29.44;33.40
66144;SHT31;52947;50.842;6.084;2022-07-04T12:48:21;29.28;33.55
66144;SHT31;52947;50.842;6.084;2022-07-04T12:50:52;29.17;32.94
66144;SHT31;52947;50.842;6.084;2022-07-04T12:53:20;29.30;32.85
66144;SHT31;52947;50.842;6.084;2022-07-04T12:55:49;28.93;33.82
66144;SHT31;52947;50.842;6.084;2022-07-04T12:58:17;29.04;33.99
66144;SHT31;52947;50.842;6.084;2022-07-04T13:00:45;28.82;33.72
66144;SHT31;52947;50.842;6.084;2022-07-04T13:03:13;29.35;34.09
66144;SHT31;52947;50.842;6.084;2022-07-04T13:05:42;29.59;34.09
66144;SHT31;52947;50.842;6.084;2022-07-04T13:08:12;28.86;33.79
66144;SHT31;52947;50.842;6.084;2022-07-04T13:10:40;28.35;34.68
66144;SHT31;52947;50.842;6.084;2022-07-04T13:13:07;28.90;34.69
66144;SHT31;52947;50.842;6.084;2022-07-04T13:15:35;28.96;34.65
66144;SHT31;52947;50.842;6.084;2022-07-04T13:18:03;28.77;34.58
66144;SHT31;52947;50.842;6.084;2022-07-04T13:20:31;28.92;35.24
66144;SHT31;52947;50.842;6.084;2022-07-04T13:22:59;28.77;34.12
66144;SHT31;52947;50.842;6.084;2022-07-04T13:25:29;28.80;34.10
66144;SHT31;52947;50.842;6.084;2022-07-04T13:27:57;28.76;35.18
66144;SHT31;52947;50.842;6.084;2022-07-04T13:30:25;28.53;35.25
66144;SHT31;52947;50.842;6.084;2022-07-04T13:32:53;28.36;34.36
66144;SHT31;52947;50.842;6.084;2022-07-04T13:35:21;27.88;35.26
66144;SHT31;52947;50.842;6.084;2022-07-04T13:37:51;27.57;35.52
66144;SHT31;52947;50.842;6.084;2022-07-04T13:40:26;26.78;35.67
66144;SHT31;52947;50.842;6.084;2022-07-04T13:42:55;26.73;35.85
66144;SHT31;52947;50.842;6.084;2022-07-04T13:45:26;26.95;35.39
66144;SHT31;52947;50.842;6.084;2022-07-04T13:47:54;27.02;36.61
66144;SHT31;52947;50.842;6.084;2022-07-04T13:50:22;26.79;37.70
66144;SHT31;52947;50.842;6.084;2022-07-04T13:52:50;26.73;37.96
66144;SHT31;52947;50.842;6.084;2022-07-04T13:55:18;26.67;37.40
66144;SHT31;52947;50.842;6.084;2022-07-04T13:57:46;26.83;38.68
66144;SHT31;52947;50.842;6.084;2022-07-04T14:00:16;26.93;37.46
66144;SHT31;52947;50.842;6.084;2022-07-04T14:02:44;26.71;38.18
66144;SHT31;52947;50.842;6.084;2022-07-04T14:05:12;26.79;36.82
66144;SHT31;52947;50.842;6.084;2022-07-04T14:07:40;26.65;37.31
66144;SHT31;52947;50.842;6.084;2022-07-04T14:10:09;26.63;37.68
66144;SHT31;52947;50.842;6.084;2022-07-04T14:12:37;26.39;38.55
66144;SHT31;52947;50.842;6.084;2022-07-04T14:15:06;26.34;39.25
66144;SHT31;52947;50.842;6.084;2022-07-04T14:17:35;26.20;39.49
66144;SHT31;52947;50.842;6.084;2022-07-04T14:20:04;26.22;39.99
66144;SHT31;52947;50.842;6.084;2022-07-04T14:22:33;25.96;40.33
66144;SHT31;52947;50.842;6.084;2022-07-04T14:25:02;26.20;40.89
66144;SHT31;52947;50.842;6.084;2022-07-04T14:27:30;26.17;41.16
66144;SHT31;52947;50.842;6.084;2022-07-04T14:29:58;25.89;41.00
66144;SHT31;52947;50.842;6.084;2022-07-04T14:32:26;25.90;41.41
66144;SHT31;52947;50.842;6.084;2022-07-04T14:34:55;26.04;41.43
66144;SHT31;52947;50.842;6.084;2022-07-04T14:37:23;26.14;40.69
66144;SHT31;52947;50.842;6.084;2022-07-04T14:39:51;26.13;39.90
66144;SHT31;52947;50.842;6.084;2022-07-04T14:42:19;26.30;38.34
66144;SHT31;52947;50.842;6.084;2022-07-04T14:44:47;26.30;38.76
66144;SHT31;52947;50.842;6.084;2022-07-04T14:47:15;25.96;39.85
66144;SHT31;52947;50.842;6.084;2022-07-04T14:49:43;26.07;39.25
66144;SHT31;52947;50.842;6.084;2022-07-04T14:52:13;26.05;36.91
66144;SHT31;52947;50.842;6.084;2022-07-04T14:54:41;26.17;38.23
66144;SHT31;52947;50.842;6.084;2022-07-04T14:57:08;25.84;38.24
66144;SHT31;52947;50.842;6.084;2022-07-04T14:59:36;25.76;39.62
66144;SHT31;52947;50.842;6.084;2022-07-04T15:02:04;25.51;39.04
66144;SHT31;52947;50.842;6.084;2022-07-04T15:04:32;25.50;39.75
66144;SHT31;52947;50.842;6.084;2022-07-04T15:07:00;25.49;39.07
66144;SHT31;52947;50.842;6.084;2022-07-04T15:09:30;25.39;39.48
66144;SHT31;52947;50.842;6.084;2022-07-04T15:11:58;25.36;39.73
66144;SHT31;52947;50.842;6.084;2022-07-04T15:14:26;25.46;40.59
66144;SHT31;52947;50.842;6.084;2022-07-04T15:16:54;25.67;40.85
66144;SHT31;52947;50.842;6.084;2022-07-04T15:19:22;25.74;40.28
66144;SHT31;52947;50.842;6.084;2022-07-04T15:21:50;25.16;39.52
66144;SHT31;52947;50.842;6.084;2022-07-04T15:24:36;25.32;39.36
66144;SHT31;52947;50.842;6.084;2022-07-04T15:27:04;25.59;41.05
66144;SHT31;52947;50.842;6.084;2022-07-04T15:29:32;25.53;40.27
66144;SHT31;52947;50.842;6.084;2022-07-04T15:32:00;25.22;40.33
66144;SHT31;52947;50.842;6.084;2022-07-04T15:34:33;25.46;40.43
66144;SHT31;52947;50.842;6.084;2022-07-04T15:37:01;25.63;40.79
66144;SHT31;52947;50.842;6.084;2022-07-04T15:39:29;25.66;39.79
66144;SHT31;52947;50.842;6.084;2022-07-04T15:41:58;25.54;40.15
66144;SHT31;52947;50.842;6.084;2022-07-04T15:44:26;25.56;40.71
66144;SHT31;52947;50.842;6.084;2022-07-04T15:46:54;25.47;38.86
66144;SHT31;52947;50.842;6.084;2022-07-04T15:49:37;25.51;38.43